Station FRMA1 - 8734383 - Fort Morgan, AL Image indicating link to RSS feed of recent meteorological observations for station FRMA1


Conditions at FRMA1 as of
(5:30 am CDT)
1030 GMT on 09/01/2026:
     

Click on the graph icon in the table below to see a time series plot of the last five days of that observation.

5-day plot - Wind Direction Wind Direction (WDIR): NE ( 50 deg true )
5-day plot - Wind Speed Wind Speed (WSPD): 5.1 kts
5-day plot - Wind Gust Wind Gust (GST): 5.1 kts
5-day plot - Atmospheric Pressure Atmospheric Pressure (PRES):30.01 in
5-day plot - Air Temperature Air Temperature (ATMP): 84.6 °F
5-day plot - Dew Point Dew Point (DEWP): 84.6 °F
5-day plot - Visibility Visibility (VIS): 5.9 nmi
5-day plot - Heat Index Heat Index (HEAT):105.1 °F
5-day plot - Wind Speed at 10 Meters Wind Speed at 10 meters (WSPD10M): 5.8 kts
5-day plot - Wind Speed at 20 Meters Wind Speed at 20 meters (WSPD20M): 5.8 kts
5-day plot -  Wind Speed, Wind Gust and Atmospheric Pressure Combined plot of Wind Speed, Gust, and Air Pressure
NOS Water Level Observation Network Water Level
Previous observations
TIME
(CDT)
5-day plot - Wind Direction
WDIR
 
5-day plot - Wind Speed
WSPD
kts
5-day plot - Wind Gust
GST
kts
5-day plot - Wave Height
WVHT
ft
5-day plot - Dominant Wave Period
DPD
sec
5-day plot - Average Wave Period
APD
sec
5-day plot - Mean Wave Direction
MWD
 
5-day plot - Atmospheric Pressure
PRES
in
5-day plot - Pressure Tendency
PTDY
in
5-day plot - Air Temperature
ATMP
°F
5-day plot - Water Temperature
WTMP
°F
5-day plot - Dew Point
DEWP
°F
5-day plot - Salinity
SAL
psu
5-day plot - Visibility
VIS
nmi
5-day plot - Tide (above MLLW)
TIDE
ft
2026-09-01 05:24 am NE 4.1 5.1----30.01- 84.6- 84.0- 5.9-
2026-09-01 05:18 amENE 2.9 2.9----30.01----- 5.9-
2026-09-01 05:12 am E 1.9 1.9----30.01----- 5.9-
2026-09-01 05:06 am E 1.0 2.9----30.01----- 5.9-
2026-09-01 05:00 amESE 1.9 2.9----30.01- 84.4- 82.8- 5.9-
2026-09-01 04:54 amESE 2.9 4.1----30.01- 84.2- 82.8- 5.9-
2026-09-01 04:48 amESE 1.9 2.9----30.01- 84.4- 83.1- 5.9-
2026-09-01 04:42 amESE 1.9 2.9----30.01- 84.4- 82.9- 5.9-
2026-09-01 04:36 amESE 2.9 4.1----30.00- 84.2- 82.9- 5.9-
2026-09-01 04:30 amESE 2.9 4.1----30.00- 84.2- 83.1- 5.9-
2026-09-01 04:24 amESE 2.9 2.9----30.00- 84.0- 83.1- 5.9-
2026-09-01 04:18 amESE 1.9 2.9----30.00----- 5.9-
2026-09-01 04:12 amESE 1.9 2.9----30.00----- 5.9-
2026-09-01 04:06 amESE 1.9 2.9----30.01----- 5.9-
2026-09-01 04:00 amESE 1.9 2.9----30.01-0.02 84.4- 83.1- 5.9-
2026-09-01 03:54 am E 2.9 4.1----30.00- 84.6- 83.1- 5.9-
2026-09-01 03:48 amESE 2.9 4.1----30.00----- 5.9-
2026-09-01 03:42 amESE 2.9 4.1----30.00----- 5.9-
2026-09-01 03:36 amESE 2.9 4.1----30.00----- 5.9-
2026-09-01 03:30 am SE 1.9 2.9----30.01- 84.6- 82.9- 5.9-
2026-09-01 03:24 am SE 1.9 4.1----30.01- 84.6- 82.8- 5.9-
2026-09-01 03:18 am SE 2.9 4.1----30.01----- 5.9-
2026-09-01 03:12 am SE 1.9 4.1----30.01----- 5.9-
2026-09-01 03:06 am SE 2.9 4.1----30.01----- 5.9-
2026-09-01 03:00 am SE 2.9 5.1----30.01-0.02 84.7- 82.9- 5.9-
2026-09-01 02:54 am SE 1.9 4.1----30.01- 84.7- 82.9- 5.9-
2026-09-01 02:48 amSSE 2.9 4.1----30.01- 84.7- 82.9- 5.9-
2026-09-01 02:42 am SE 2.9 4.1----30.01- 84.7- 82.9- 5.9-
2026-09-01 02:36 amSSE 1.9 4.1----30.01- 84.7- 82.8- 5.9-
2026-09-01 02:30 amSSE 2.9 5.1----30.01- 84.7- 82.6- 5.9-
2026-09-01 02:24 am SE 4.1 6.0----30.01- 84.7- 82.6- 5.9-
2026-09-01 02:18 amSSE 2.9 5.1----30.01- 84.9- 82.8- 5.9-
2026-09-01 02:12 amSSE 5.1 6.0----30.01- 84.7- 82.4- 5.9-
2026-09-01 02:06 amSSE 5.1 7.0----30.01- 84.7- 82.4- 5.9-
2026-09-01 02:00 amSSE 4.1 6.0------ 84.7- 82.2- 5.9-
2026-09-01 01:54 am SE 4.1 6.0------ 84.7- 82.4- 5.9-
2026-09-01 01:48 am SE 4.1 6.0----30.01- 84.7- 82.6- 5.9-
2026-09-01 01:42 am SE 4.1 6.0----30.02- 84.7- 82.6- 5.9-
2026-09-01 01:36 am SE 2.9 6.0----30.02- 84.7- 82.6- 5.9-
2026-09-01 01:30 am SE 4.1 5.1----30.02----- 5.9-
2026-09-01 01:24 amESE 2.9 5.1----30.02----- 5.9-
2026-09-01 01:18 amESE 4.1 6.0----30.03----- 5.9-
2026-09-01 01:12 am SE 4.1 5.1----30.03----- 5.9-
2026-09-01 01:06 am SE 1.9 6.0----30.03----- 5.9-
2026-09-01 01:00 am SE 4.1 5.1----30.03+0.00 84.6- 82.9- 5.9-
2026-09-01 12:54 am SE 2.9 5.1----30.03- 84.6- 83.1- 5.9-
2026-09-01 12:48 am SE 2.9 6.0----30.03- 84.7- 83.3- 5.9-
2026-09-01 12:42 amSSE 4.1 7.0----30.03- 84.7- 83.3- 5.9-
2026-09-01 12:36 amSSE 4.1 7.0----30.03- 84.6- 83.1- 5.9-
2026-09-01 12:30 amSSE 4.1 6.0----30.03- 84.7- 83.3- 5.9-
2026-09-01 12:24 am SE 5.1 6.0----30.03- 84.9- 83.3- 5.9-
2026-09-01 12:18 am SE 4.1 6.0----30.03----- 5.9-
2026-09-01 12:12 amSSE 4.1 6.0----30.03----- 5.9-
2026-09-01 12:06 am SE 4.1 7.0----30.03----- 5.9-
2026-09-01 12:00 amSSE 4.1 7.0----30.03+0.00 84.7- 83.5- 5.9-
2026-08-31 11:54 pm SE 2.9 5.1----30.03- 84.6- 83.7- 5.9-
2026-08-31 11:48 pm SE 5.1 6.0----30.03- 84.4- 83.7- 5.9-
2026-08-31 11:42 pm SE 4.1 6.0----30.03- 84.6- 83.8- 5.9-
2026-08-31 11:36 pmSSE 2.9 5.1----30.03- 84.7- 84.0- 5.9-
2026-08-31 11:30 pm SE 5.1 7.0----30.03- 84.9- 84.0- 5.9-
2026-08-31 11:24 pm SE 5.1 8.0----30.03- 84.7- 83.5- 5.9-
2026-08-31 11:18 pm SE 6.0 7.0----30.03----- 5.9-
2026-08-31 11:12 pmESE 5.1 6.0----30.03----- 5.9-
2026-08-31 11:06 pm SE 4.1 6.0----30.03----- 5.9-
2026-08-31 11:00 pm SE 5.1 7.0----30.03+0.01 84.9- 83.7- 5.9-
2026-08-31 10:54 pm SE 5.1 6.0----30.03- 84.7- 83.3- 5.9-
2026-08-31 10:48 pmESE 4.1 6.0----30.03----- 5.9-
2026-08-31 10:42 pmESE 4.1 6.0----30.03----- 5.9-
2026-08-31 10:36 pm SE 4.1 6.0----30.03----- 5.9-
2026-08-31 10:30 pmESE 2.9 5.1----30.03- 84.7- 83.3- 5.9-
2026-08-31 10:24 pmESE 4.1 6.0----30.03- 84.9- 83.5- 5.9-
2026-08-31 10:18 pm SE 4.1 6.0---------- 5.9-
2026-08-31 10:12 pm SE 4.1 5.1---------- 5.9-
2026-08-31 10:06 pm SE 5.1 6.0---------- 5.9-
2026-08-31 10:00 pmSSE 5.1 7.0----30.03+0.03 84.7- 83.1- 5.9-
2026-08-31 09:54 pmESE 5.1 8.0----30.03- 85.1- 83.5- 5.9-
2026-08-31 09:48 pmESE 6.0 8.9----30.03- 84.9- 83.1- 5.9-
2026-08-31 09:42 pm SE 5.1 8.9----30.03- 84.7- 83.1- 5.9-
2026-08-31 09:36 pm SE 5.1 7.0----30.03- 84.7- 83.7- 5.9-
2026-08-31 09:30 pmSSE 4.1 7.0----30.03- 84.9- 83.8- 5.9-
2026-08-31 09:24 pmSSE 5.1 8.0----30.03- 84.7- 83.7- 5.9-
2026-08-31 09:18 pmSSE 5.1 8.9----30.02----- 5.9-
2026-08-31 09:12 pm SE 6.0 8.0----30.02----- 5.9-
2026-08-31 09:06 pm SE 6.0 8.0----30.02----- 5.9-
2026-08-31 09:00 pm SE 5.1 8.9----30.02+0.01 84.9- 82.8- 5.9-
2026-08-31 08:54 pm SE 6.0 8.0----30.02- 85.1- 83.1- 5.9-
2026-08-31 08:48 pmSSE 5.1 9.9----30.02- 84.9- 82.8- 5.9-
2026-08-31 08:42 pm SE 7.0 8.9----30.02- 84.7- 82.8- 5.9-
2026-08-31 08:36 pm SE 6.0 11.1----30.02- 85.1- 83.1- 5.9-
2026-08-31 08:30 pmSSE 6.0 8.0----30.01- 85.1- 82.8- 5.9-
2026-08-31 08:24 pm SE 5.1 8.0----30.01- 85.3- 82.6- 5.9-
2026-08-31 08:18 pm SE 6.0 8.9----30.01----- 5.9-
2026-08-31 08:12 pm SE 5.1 8.0----30.01----- 5.9-
2026-08-31 08:06 pm SE 6.0 8.9----30.01----- 5.9-
2026-08-31 08:00 pmESE 6.0 7.0----30.01+0.00 84.9- 81.9- 5.9-
2026-08-31 07:54 pmESE 5.1 8.9----30.01- 85.1- 82.4- 5.9-
2026-08-31 07:48 pmESE 7.0 8.9----30.01----- 5.9-
2026-08-31 07:42 pm SE 6.0 9.9----30.01----- 5.9-
2026-08-31 07:36 pmESE 7.0 8.9----30.01----- 5.9-
2026-08-31 07:30 pmESE 7.0 8.9----30.01- 85.3- 82.0- 5.9-
2026-08-31 07:24 pmESE 7.0 8.9----30.00- 85.3- 81.5- 5.9-
2026-08-31 07:18 pmESE 6.0 9.9----30.00----- 5.9-
2026-08-31 07:12 pmESE 7.0 8.9----30.00----- 5.9-
2026-08-31 07:06 pmESE 7.0 8.9----30.00----- 5.9-
2026-08-31 07:00 pmESE 6.0 8.9----30.00-0.03 84.9- 81.3- 5.9-
2026-08-31 06:54 pmESE 5.1 8.0----30.00- 85.1- 82.4- 5.9-
2026-08-31 06:48 pmESE 7.0 8.9----30.00----- 5.9-
2026-08-31 06:42 pmESE 7.0 9.9----30.00----- 5.9-
2026-08-31 06:36 pmESE 6.0 8.0----30.00----- 5.9-
2026-08-31 05:48 pm SE 8.0 12.0----30.01- 86.4- 83.8- 5.9-
2026-08-31 05:42 pm SE 8.0 12.0----30.01- 86.5- 83.5- 5.9-
2026-08-31 05:36 pm SE 8.0 11.1----30.01- 86.5- 83.3- 5.9-
2026-08-31 05:30 pmESE 8.9 9.9----30.01- 86.5- 83.3- 5.9-
2026-08-31 05:24 pm SE 8.0 12.0----30.01- 86.2- 82.9- 5.9-
2026-08-31 05:18 pmESE 8.9 11.1----30.01- 86.4- 83.7- 5.9-
2026-08-31 05:12 pmESE 8.0 11.1----30.01- 86.5- 83.7- 5.9-
2026-08-31 05:06 pmESE 9.9 12.0----30.01- 86.2- 83.5- 5.9-
2026-08-31 05:00 pmESE 8.0 12.0----30.01-0.03 86.4- 83.8- 5.9-
2026-08-31 04:54 pm E 9.9 13.0----30.01- 86.2- 83.5- 5.9-
2026-08-31 04:48 pmESE 9.9 13.0----30.01- 86.0- 83.3- 5.9-
2026-08-31 04:42 pmESE 9.9 12.0----30.01- 86.2- 83.3- 5.9-
2026-08-31 04:36 pmESE 12.0 14.0----30.02- 85.8- 82.9- 5.9-
2026-08-31 04:30 pmESE 8.9 12.0----30.02- 86.5- 83.8- 5.9-
2026-08-31 04:24 pmESE 8.0 11.1----30.02- 86.4- 83.3- 5.9-
2026-08-31 04:18 pmESE 8.9 12.0----30.02----- 5.9-
2026-08-31 04:12 pmESE 8.9 12.0----30.02----- 5.9-
2026-08-31 04:06 pmESE 8.0 13.0----30.03----- 5.9-
2026-08-31 04:00 pmESE 9.9 12.0----30.03-0.03 86.2- 83.1- 5.9-
2026-08-31 03:54 pmESE 8.9 12.0----30.02- 86.4- 83.7- 5.9-
2026-08-31 03:48 pmESE 8.9 13.0----30.03- 86.4- 83.5- 5.9-
2026-08-31 03:42 pmESE 11.1 14.0----30.03- 86.0- 82.9- 5.9-
2026-08-31 03:36 pmESE 9.9 13.0----30.03- 86.2- 83.1- 5.9-
2026-08-31 03:30 pmESE 9.9 12.0----30.03- 86.0- 82.8- 5.9-
2026-08-31 03:24 pmESE 11.1 12.0----30.03- 85.6- 82.6- 5.9-
2026-08-31 03:18 pmESE 9.9 13.0----30.02----- 5.9-
2026-08-31 03:12 pmESE 11.1 13.0----30.02----- 5.9-
2026-08-31 03:06 pmESE 8.9 13.0----30.02----- 5.9-
2026-08-31 03:00 pmESE 11.1 14.0----30.02-0.04 86.0- 83.3- 5.9-
2026-08-31 02:54 pmESE 8.9 13.0----30.03- 86.2- 83.1- 5.9-
2026-08-31 02:48 pmESE 8.9 13.0----30.03- 85.6- 82.6- 5.9-
2026-08-31 02:42 pmESE 7.0 11.1----30.03- 85.8- 82.9- 5.9-
2026-08-31 02:36 pmESE 8.0 12.0----30.03- 85.6- 83.1- 5.9-
2026-08-31 02:30 pmESE 9.9 14.0----30.03- 85.5- 83.3- 5.9-
2026-08-31 02:24 pmESE 9.9 13.0----30.03- 85.6- 83.3- 5.9-
2026-08-31 02:18 pmESE 11.1 14.0----30.03----- 5.9-
2026-08-31 02:12 pmESE 11.1 14.0----30.04----- 5.9-
2026-08-31 02:06 pmESE 12.0 14.0----30.04----- 5.9-
2026-08-31 02:00 pmESE 11.1 15.9----30.04-0.02 85.5- 83.5- 5.9-
2026-08-31 01:54 pmESE 9.9 15.0----30.05- 85.8- 83.5- 5.9-
2026-08-31 01:48 pmESE 9.9 15.0----30.05- 85.8- 83.8- 5.9-
2026-08-31 01:42 pm E 11.1 15.9----30.04- 85.8- 83.5- 5.9-
2026-08-31 01:36 pmESE 13.0 15.9----30.04- 85.3- 82.6- 5.9-
2026-08-31 01:30 pm E 13.0 15.9----30.04- 85.1- 82.4- 5.9-
2026-08-31 01:24 pmESE 12.0 15.0----30.04- 85.8- 82.9- 5.9-
2026-08-31 01:18 pmESE 11.1 15.9----30.05----- 5.9-
2026-08-31 01:12 pm E 9.9 14.0----30.05----- 5.9-
2026-08-31 01:06 pm E 11.1 14.0----30.05----- 5.9-
2026-08-31 01:00 pmESE 12.0 15.0----30.06+0.00 85.3- 84.0- 5.9-
2026-08-31 12:54 pmESE 9.9 14.0----30.06- 85.5- 84.0- 5.9-
2026-08-31 12:48 pmESE 9.9 15.0----30.06----- 5.9-
2026-08-31 12:42 pmESE 12.0 15.0----30.06----- 5.9-
2026-08-31 12:36 pm E 13.0 15.9----30.05----- 5.9-
2026-08-31 12:30 pm E 12.0 15.0----30.05- 85.1- 83.1- 5.9-
2026-08-31 12:24 pm E 12.0 15.0----30.05- 85.1- 83.7- 5.9-
2026-08-31 12:18 pm E 9.9 14.0----30.05----- 5.9-
2026-08-31 12:12 pmESE 9.9 14.0----30.06----- 5.9-
2026-08-31 12:06 pm E 11.1 13.0----30.06----- 5.9-
2026-08-31 12:00 pmESE 8.9 12.0----30.06+0.00 85.8- 83.7- 5.9-
2026-08-31 11:54 am E 8.0 13.0----30.06- 85.6- 83.3- 5.9-
2026-08-31 11:48 am E 12.0 14.0----30.06- 84.9- 82.2- 5.9-
2026-08-31 11:42 am E 11.1 14.0----30.07- 85.5- 83.1- 5.9-
2026-08-31 11:36 am E 8.9 13.0----30.07- 85.3- 82.6- 5.9-
2026-08-31 11:30 am E 9.9 13.0----30.07- 85.5- 82.8- 5.9-
2026-08-31 11:24 am E 12.0 14.0----30.07- 85.1- 82.6- 5.9-
2026-08-31 11:18 am E 12.0 15.0----30.07----- 5.9-
2026-08-31 11:12 am E 9.9 13.0----30.07----- 5.9-
2026-08-31 11:06 am E 9.9 13.0----30.07----- 5.9-
2026-08-31 11:00 am E 8.9 12.0----30.07+0.03 85.3- 82.8- 5.9-
2026-08-31 10:54 am E 9.9 13.0----30.07- 84.6- 82.0- 5.9-
2026-08-31 10:48 amENE 8.0 11.1----30.07- 84.2- 82.6- 5.9-
2026-08-31 10:42 am E 8.9 11.1----30.06- 84.2- 81.9- 5.9-
2026-08-31 10:36 am E 8.0 9.9----30.06- 84.2- 81.9- 5.9-
2026-08-31 10:30 am E 7.0 9.9----30.07- 83.8- 81.0- 5.9-
2026-08-31 10:24 amENE 7.0 8.9----30.07- 82.8- 79.3- 5.9-
2026-08-31 10:18 am E 8.9 12.0----30.07----- 5.9-
2026-08-31 10:12 amENE 11.1 12.0----30.07----- 5.9-
2026-08-31 10:06 amENE 8.9 11.1----30.06----- 5.9-
2026-08-31 10:00 amENE 8.9 9.9----30.06+0.04 82.6- 82.6- 5.9-
2026-08-31 09:54 amENE 8.9 9.9----30.06- 82.4- 82.4- 5.9-
2026-08-31 09:48 amENE 8.9 11.1----30.06- 82.4- 82.4- 5.9-
2026-08-31 09:42 amENE 8.9 9.9----30.06- 82.2- 82.2- 5.9-
2026-08-31 09:36 am NE 9.9 11.1----30.06- 81.7- 81.7- 5.9-
2026-08-31 09:30 am NE 9.9 12.0----30.06- 81.5- 81.5- 4.9-
2026-08-31 09:24 amENE 11.1 12.0----30.06- 81.3- 81.3- 5.9-
2026-08-31 09:18 amENE 9.9 12.0----30.06----- 5.9-
2026-08-31 09:12 amENE 8.9 11.1----30.06----- 5.9-
2026-08-31 09:06 am NE 8.9 11.1----30.06----- 5.9-
2026-08-31 09:00 amENE 8.0 9.9----30.06+0.05 81.3- 81.3- 5.9-
2026-08-31 08:54 amENE 8.9 11.1----30.06- 81.0- 81.0- 5.9-
2026-08-31 08:48 amENE 9.9 13.0----30.06----- 5.9-
2026-08-31 08:42 amENE 11.1 13.0----30.05----- 5.9-
2026-08-31 08:36 am NE 12.0 13.0----30.05----- 5.9-
2026-08-31 08:30 amENE 12.0 13.0----30.05- 81.3- 81.3- 5.9-
2026-08-31 08:24 amENE 12.0 14.0----30.05- 81.7- 81.7- 5.9-
2026-08-31 08:18 amENE 11.1 12.0----30.05----- 5.9-
2026-08-31 08:12 amENE 11.1 12.0----30.04----- 5.9-
2026-08-31 08:06 amENE 9.9 12.0----30.04----- 5.9-
2026-08-31 08:00 amENE 11.1 11.1----30.04+0.04 82.0- 82.0- 5.9-
2026-08-31 07:54 amENE 8.9 9.9----30.04- 82.0- 82.0- 5.9-
2026-08-31 07:48 amENE 8.9 9.9----30.04----- 5.9-
2026-08-31 07:42 amENE 8.9 11.1----30.04----- 5.9-
2026-08-31 07:36 amENE 9.9 11.1----30.04----- 5.9-
2026-08-31 07:30 amENE 8.9 11.1----30.03- 81.9- 81.9- 5.9-
2026-08-31 07:24 amENE 8.0 11.1----30.03- 81.7- 81.7- 5.9-
2026-08-31 07:18 amENE 9.9 12.0----30.03----- 5.9-
2026-08-31 07:12 amENE 8.9 11.1----30.02----- 5.9-
2026-08-31 07:06 am E 8.0 9.9----30.02----- 5.9-
2026-08-31 07:00 amENE 7.0 8.9----30.02+0.03 81.1- 81.1- 5.9-
2026-08-31 06:54 amENE 8.9 12.0----30.02- 80.8- 80.8- 5.9-
2026-08-31 06:48 amENE 11.1 12.0----30.01----- 5.9-
2026-08-31 06:42 am E 11.1 12.0----30.01----- 5.9-
2026-08-31 06:36 am E 11.1 13.0----30.01----- 5.9-
2026-08-31 06:30 amENE 9.9 11.1----30.01- 80.8- 80.8- 5.9-
2026-08-31 06:24 amENE 8.0 8.9----30.01- 80.6- 80.6- 5.9-
2026-08-31 06:18 amENE 8.0 9.9----30.01----- 5.9-
2026-08-31 06:12 am E 8.9 11.1----30.01----- 5.9-
2026-08-31 06:06 am E 9.9 13.0----30.01----- 5.9-
2026-08-31 06:00 am E 11.1 14.0----30.01+0.02 80.6- 80.6- 5.9-
2026-08-31 05:54 am E 12.0 15.0----30.01- 80.6- 80.6- 5.9-